sensor_id;sensor_type;location;lat;lon;timestamp;pressure;altitude;pressure_sealevel;temperature;humidity
31005;BME280;17676;52.254;4.490;2023-05-09T00:01:12;101602.63;;;15.56;100.00
31005;BME280;17676;52.254;4.490;2023-05-09T00:03:38;101598.44;;;15.53;100.00
31005;BME280;17676;52.254;4.490;2023-05-09T00:06:05;101598.94;;;15.44;100.00
31005;BME280;17676;52.254;4.490;2023-05-09T00:08:31;101606.53;;;15.35;100.00
31005;BME280;17676;52.254;4.490;2023-05-09T00:10:57;101607.84;;;15.26;100.00
31005;BME280;17676;52.254;4.490;2023-05-09T00:13:22;101596.47;;;15.36;100.00
31005;BME280;17676;52.254;4.490;2023-05-09T00:15:49;101593.41;;;15.50;100.00
31005;BME280;17676;52.254;4.490;2023-05-09T00:18:18;101602.19;;;15.59;100.00
31005;BME280;17676;52.254;4.490;2023-05-09T00:20:44;101599.72;;;15.51;100.00
31005;BME280;17676;52.254;4.490;2023-05-09T00:23:12;101595.78;;;15.47;100.00
31005;BME280;17676;52.254;4.490;2023-05-09T00:25:38;101588.91;;;15.38;100.00
31005;BME280;17676;52.254;4.490;2023-05-09T00:28:03;101589.69;;;15.45;100.00
31005;BME280;17676;52.254;4.490;2023-05-09T00:30:30;101575.09;;;15.26;100.00
31005;BME280;17676;52.254;4.490;2023-05-09T00:32:55;101594.16;;;15.33;100.00
31005;BME280;17676;52.254;4.490;2023-05-09T00:35:21;101577.53;;;15.41;100.00
31005;BME280;17676;52.254;4.490;2023-05-09T00:37:46;101581.44;;;15.51;100.00
31005;BME280;17676;52.254;4.490;2023-05-09T00:40:12;101565.34;;;15.43;100.00
31005;BME280;17676;52.254;4.490;2023-05-09T00:42:38;101578.50;;;15.53;100.00
31005;BME280;17676;52.254;4.490;2023-05-09T00:45:05;101563.34;;;15.57;100.00
31005;BME280;17676;52.254;4.490;2023-05-09T00:47:32;101555.03;;;15.70;100.00
31005;BME280;17676;52.254;4.490;2023-05-09T00:49:58;101544.13;;;15.70;100.00
31005;BME280;17676;52.254;4.490;2023-05-09T00:52:24;101542.44;;;15.69;100.00
31005;BME280;17676;52.254;4.490;2023-05-09T00:54:51;101551.28;;;15.71;100.00
31005;BME280;17676;52.254;4.490;2023-05-09T00:57:17;101551.88;;;15.73;100.00
31005;BME280;17676;52.254;4.490;2023-05-09T00:59:43;101561.59;;;15.87;100.00
31005;BME280;17676;52.254;4.490;2023-05-09T01:02:08;101540.72;;;15.74;100.00
31005;BME280;17676;52.254;4.490;2023-05-09T01:04:34;101539.72;;;15.69;100.00
31005;BME280;17676;52.254;4.490;2023-05-09T01:07:05;101535.69;;;15.71;100.00
31005;BME280;17676;52.254;4.490;2023-05-09T01:10:01;101528.28;;;15.60;100.00
31005;BME280;17676;52.254;4.490;2023-05-09T01:12:31;101524.56;;;15.55;100.00
31005;BME280;17676;52.254;4.490;2023-05-09T01:15:15;101515.78;;;15.46;100.00
31005;BME280;17676;52.254;4.490;2023-05-09T01:17:51;101520.75;;;15.56;100.00
31005;BME280;17676;52.254;4.490;2023-05-09T01:20:37;101515.66;;;15.59;100.00
31005;BME280;17676;52.254;4.490;2023-05-09T01:23:39;101513.50;;;15.68;100.00
31005;BME280;17676;52.254;4.490;2023-05-09T01:26:35;101498.28;;;15.54;100.00
31005;BME280;17676;52.254;4.490;2023-05-09T01:29:24;101492.84;;;15.54;100.00
31005;BME280;17676;52.254;4.490;2023-05-09T01:31:55;101493.47;;;15.56;100.00
31005;BME280;17676;52.254;4.490;2023-05-09T01:34:25;101485.94;;;15.51;100.00
31005;BME280;17676;52.254;4.490;2023-05-09T01:36:58;101482.19;;;15.52;100.00
31005;BME280;17676;52.254;4.490;2023-05-09T01:39:26;101482.63;;;15.49;100.00
31005;BME280;17676;52.254;4.490;2023-05-09T01:41:55;101480.97;;;15.48;100.00
31005;BME280;17676;52.254;4.490;2023-05-09T01:44:23;101483.28;;;15.45;100.00
31005;BME280;17676;52.254;4.490;2023-05-09T01:46:53;101486.78;;;15.52;100.00
31005;BME280;17676;52.254;4.490;2023-05-09T01:49:21;101473.59;;;15.49;100.00
31005;BME280;17676;52.254;4.490;2023-05-09T01:51:48;101478.88;;;15.44;100.00
31005;BME280;17676;52.254;4.490;2023-05-09T01:54:15;101463.75;;;15.48;100.00
31005;BME280;17676;52.254;4.490;2023-05-09T01:56:42;101465.72;;;15.59;100.00
31005;BME280;17676;52.254;4.490;2023-05-09T01:59:09;101460.28;;;15.59;100.00
31005;BME280;17676;52.254;4.490;2023-05-09T02:01:41;101471.19;;;15.59;100.00
31005;BME280;17676;52.254;4.490;2023-05-09T02:04:06;101450.47;;;15.51;100.00
31005;BME280;17676;52.254;4.490;2023-05-09T02:06:33;101449.53;;;15.39;100.00
31005;BME280;17676;52.254;4.490;2023-05-09T02:09:00;101451.47;;;15.39;100.00
31005;BME280;17676;52.254;4.490;2023-05-09T02:11:26;101454.56;;;15.42;100.00
31005;BME280;17676;52.254;4.490;2023-05-09T02:13:52;101468.41;;;15.41;100.00
31005;BME280;17676;52.254;4.490;2023-05-09T02:16:18;101448.13;;;15.30;100.00
31005;BME280;17676;52.254;4.490;2023-05-09T02:18:43;101440.31;;;15.40;100.00
31005;BME280;17676;52.254;4.490;2023-05-09T02:21:09;101442.78;;;15.42;100.00
31005;BME280;17676;52.254;4.490;2023-05-09T02:23:36;101449.34;;;15.34;100.00
31005;BME280;17676;52.254;4.490;2023-05-09T02:26:02;101439.72;;;15.32;100.00
31005;BME280;17676;52.254;4.490;2023-05-09T02:28:28;101441.59;;;15.38;100.00
31005;BME280;17676;52.254;4.490;2023-05-09T02:30:56;101445.09;;;15.45;100.00
31005;BME280;17676;52.254;4.490;2023-05-09T02:33:23;101431.50;;;15.38;100.00
31005;BME280;17676;52.254;4.490;2023-05-09T02:35:51;101429.78;;;15.44;100.00
31005;BME280;17676;52.254;4.490;2023-05-09T02:38:17;101430.22;;;15.41;100.00
31005;BME280;17676;52.254;4.490;2023-05-09T02:40:46;101428.28;;;15.48;100.00
31005;BME280;17676;52.254;4.490;2023-05-09T02:43:12;101428.19;;;15.54;100.00
31005;BME280;17676;52.254;4.490;2023-05-09T02:45:39;101415.00;;;15.51;100.00
31005;BME280;17676;52.254;4.490;2023-05-09T02:48:05;101427.06;;;15.62;100.00
31005;BME280;17676;52.254;4.490;2023-05-09T02:50:31;101431.28;;;15.58;100.00
31005;BME280;17676;52.254;4.490;2023-05-09T02:52:57;101426.16;;;15.68;100.00
31005;BME280;17676;52.254;4.490;2023-05-09T02:55:22;101407.81;;;15.57;100.00
31005;BME280;17676;52.254;4.490;2023-05-09T02:57:48;101404.59;;;15.42;100.00
31005;BME280;17676;52.254;4.490;2023-05-09T03:00:13;101422.06;;;15.59;100.00
31005;BME280;17676;52.254;4.490;2023-05-09T03:02:40;101416.28;;;15.49;100.00
31005;BME280;17676;52.254;4.490;2023-05-09T03:05:05;101411.06;;;15.47;100.00
31005;BME280;17676;52.254;4.490;2023-05-09T03:07:31;101400.53;;;15.51;100.00
31005;BME280;17676;52.254;4.490;2023-05-09T03:09:57;101392.03;;;15.41;100.00
31005;BME280;17676;52.254;4.490;2023-05-09T03:12:22;101396.38;;;15.48;100.00
31005;BME280;17676;52.254;4.490;2023-05-09T03:14:48;101402.97;;;15.59;100.00
31005;BME280;17676;52.254;4.490;2023-05-09T03:17:14;101388.22;;;15.42;100.00
31005;BME280;17676;52.254;4.490;2023-05-09T03:19:46;101385.63;;;15.29;100.00
31005;BME280;17676;52.254;4.490;2023-05-09T03:22:12;101386.56;;;15.41;100.00
31005;BME280;17676;52.254;4.490;2023-05-09T03:24:37;101385.59;;;15.35;100.00
31005;BME280;17676;52.254;4.490;2023-05-09T03:27:03;101377.22;;;15.30;100.00
31005;BME280;17676;52.254;4.490;2023-05-09T03:29:28;101377.00;;;15.32;100.00
31005;BME280;17676;52.254;4.490;2023-05-09T03:31:54;101383.78;;;15.47;100.00
31005;BME280;17676;52.254;4.490;2023-05-09T03:34:20;101388.13;;;15.55;100.00
31005;BME280;17676;52.254;4.490;2023-05-09T03:36:45;101376.00;;;15.51;100.00
31005;BME280;17676;52.254;4.490;2023-05-09T03:39:11;101373.75;;;15.59;100.00
31005;BME280;17676;52.254;4.490;2023-05-09T03:41:37;101370.34;;;15.46;100.00
31005;BME280;17676;52.254;4.490;2023-05-09T03:44:04;101362.66;;;15.43;100.00
31005;BME280;17676;52.254;4.490;2023-05-09T03:46:30;101358.41;;;15.47;100.00
31005;BME280;17676;52.254;4.490;2023-05-09T03:48:55;101355.91;;;15.45;100.00
31005;BME280;17676;52.254;4.490;2023-05-09T03:51:21;101350.31;;;15.40;100.00
31005;BME280;17676;52.254;4.490;2023-05-09T03:53:47;101364.44;;;15.49;100.00
31005;BME280;17676;52.254;4.490;2023-05-09T03:56:14;101331.34;;;15.45;100.00
31005;BME280;17676;52.254;4.490;2023-05-09T03:58:40;101333.16;;;15.51;100.00
31005;BME280;17676;52.254;4.490;2023-05-09T04:01:06;101345.66;;;15.59;100.00
31005;BME280;17676;52.254;4.490;2023-05-09T04:03:31;101343.53;;;15.61;100.00
31005;BME280;17676;52.254;4.490;2023-05-09T04:05:57;101341.88;;;15.60;100.00
31005;BME280;17676;52.254;4.490;2023-05-09T04:08:23;101320.94;;;15.54;100.00
31005;BME280;17676;52.254;4.490;2023-05-09T04:10:49;101324.06;;;15.57;100.00
31005;BME280;17676;52.254;4.490;2023-05-09T04:13:16;101319.41;;;15.58;100.00
31005;BME280;17676;52.254;4.490;2023-05-09T04:15:42;101317.63;;;15.52;100.00
31005;BME280;17676;52.254;4.490;2023-05-09T04:18:07;101325.72;;;15.58;100.00
31005;BME280;17676;52.254;4.490;2023-05-09T04:20:33;101334.00;;;15.52;100.00
31005;BME280;17676;52.254;4.490;2023-05-09T04:22:59;101328.53;;;15.52;100.00
31005;BME280;17676;52.254;4.490;2023-05-09T04:25:24;101314.34;;;15.43;100.00
31005;BME280;17676;52.254;4.490;2023-05-09T04:27:50;101308.22;;;15.48;100.00
31005;BME280;17676;52.254;4.490;2023-05-09T04:30:16;101310.50;;;15.51;100.00
31005;BME280;17676;52.254;4.490;2023-05-09T04:32:42;101304.75;;;15.41;100.00
31005;BME280;17676;52.254;4.490;2023-05-09T04:35:13;101301.56;;;15.44;100.00
31005;BME280;17676;52.254;4.490;2023-05-09T04:37:38;101299.75;;;15.38;100.00
31005;BME280;17676;52.254;4.490;2023-05-09T04:40:04;101291.38;;;15.33;100.00
31005;BME280;17676;52.254;4.490;2023-05-09T04:42:31;101314.44;;;15.37;100.00
31005;BME280;17676;52.254;4.490;2023-05-09T04:44:59;101295.34;;;15.19;100.00
31005;BME280;17676;52.254;4.490;2023-05-09T04:47:24;101299.88;;;15.25;100.00
31005;BME280;17676;52.254;4.490;2023-05-09T04:49:50;101304.88;;;15.28;100.00
31005;BME280;17676;52.254;4.490;2023-05-09T04:52:16;101299.41;;;15.28;100.00
31005;BME280;17676;52.254;4.490;2023-05-09T04:54:41;101305.78;;;15.22;100.00
31005;BME280;17676;52.254;4.490;2023-05-09T04:57:07;101297.13;;;15.25;100.00
31005;BME280;17676;52.254;4.490;2023-05-09T04:59:33;101286.25;;;15.07;100.00
31005;BME280;17676;52.254;4.490;2023-05-09T05:01:59;101288.88;;;14.95;100.00
31005;BME280;17676;52.254;4.490;2023-05-09T05:04:25;101287.44;;;14.93;100.00
31005;BME280;17676;52.254;4.490;2023-05-09T05:06:51;101293.78;;;14.87;100.00
31005;BME280;17676;52.254;4.490;2023-05-09T05:09:16;101282.41;;;14.71;100.00
31005;BME280;17676;52.254;4.490;2023-05-09T05:11:42;101284.91;;;14.73;100.00
31005;BME280;17676;52.254;4.490;2023-05-09T05:14:07;101283.56;;;14.82;100.00
31005;BME280;17676;52.254;4.490;2023-05-09T05:16:33;101276.13;;;14.71;100.00
31005;BME280;17676;52.254;4.490;2023-05-09T05:18:59;101282.84;;;14.68;100.00
31005;BME280;17676;52.254;4.490;2023-05-09T05:21:24;101266.63;;;14.55;100.00
31005;BME280;17676;52.254;4.490;2023-05-09T05:23:50;101273.31;;;14.59;100.00
31005;BME280;17676;52.254;4.490;2023-05-09T05:26:16;101261.63;;;14.52;100.00
31005;BME280;17676;52.254;4.490;2023-05-09T05:28:43;101256.03;;;14.47;100.00
31005;BME280;17676;52.254;4.490;2023-05-09T05:31:09;101260.41;;;14.48;100.00
31005;BME280;17676;52.254;4.490;2023-05-09T05:33:35;101271.63;;;14.58;100.00
31005;BME280;17676;52.254;4.490;2023-05-09T05:36:01;101263.03;;;14.61;100.00
31005;BME280;17676;52.254;4.490;2023-05-09T05:38:26;101264.25;;;14.65;100.00
31005;BME280;17676;52.254;4.490;2023-05-09T05:40:52;101263.34;;;14.71;100.00
31005;BME280;17676;52.254;4.490;2023-05-09T05:43:17;101278.53;;;14.79;100.00
31005;BME280;17676;52.254;4.490;2023-05-09T05:45:43;101279.53;;;14.84;100.00
31005;BME280;17676;52.254;4.490;2023-05-09T05:48:08;101276.06;;;14.77;100.00
31005;BME280;17676;52.254;4.490;2023-05-09T05:50:34;101271.06;;;14.74;100.00
31005;BME280;17676;52.254;4.490;2023-05-09T05:53:01;101262.19;;;14.79;100.00
31005;BME280;17676;52.254;4.490;2023-05-09T05:55:29;101263.09;;;14.73;100.00
31005;BME280;17676;52.254;4.490;2023-05-09T05:57:55;101255.00;;;14.84;100.00
31005;BME280;17676;52.254;4.490;2023-05-09T06:00:20;101250.41;;;14.85;100.00
31005;BME280;17676;52.254;4.490;2023-05-09T06:02:46;101256.53;;;14.80;100.00
31005;BME280;17676;52.254;4.490;2023-05-09T06:05:12;101248.91;;;14.89;100.00
31005;BME280;17676;52.254;4.490;2023-05-09T06:07:38;101254.50;;;14.94;100.00
31005;BME280;17676;52.254;4.490;2023-05-09T06:10:09;101256.09;;;15.02;100.00
31005;BME280;17676;52.254;4.490;2023-05-09T06:12:34;101255.84;;;15.03;100.00
31005;BME280;17676;52.254;4.490;2023-05-09T06:15:01;101255.25;;;15.01;100.00
31005;BME280;17676;52.254;4.490;2023-05-09T06:17:30;101257.75;;;15.03;100.00
31005;BME280;17676;52.254;4.490;2023-05-09T06:19:55;101248.97;;;15.01;100.00
31005;BME280;17676;52.254;4.490;2023-05-09T06:22:21;101245.56;;;15.05;100.00
31005;BME280;17676;52.254;4.490;2023-05-09T06:24:47;101241.31;;;14.91;100.00
31005;BME280;17676;52.254;4.490;2023-05-09T06:27:12;101235.28;;;14.89;100.00
31005;BME280;17676;52.254;4.490;2023-05-09T06:29:38;101227.38;;;14.81;100.00
31005;BME280;17676;52.254;4.490;2023-05-09T06:32:03;101239.59;;;14.78;100.00
31005;BME280;17676;52.254;4.490;2023-05-09T06:34:31;101240.78;;;14.82;100.00
31005;BME280;17676;52.254;4.490;2023-05-09T06:36:57;101232.69;;;14.76;100.00
31005;BME280;17676;52.254;4.490;2023-05-09T06:39:24;101235.94;;;14.84;100.00
31005;BME280;17676;52.254;4.490;2023-05-09T06:41:49;101220.56;;;14.72;100.00
31005;BME280;17676;52.254;4.490;2023-05-09T06:44:15;101226.25;;;14.70;100.00
31005;BME280;17676;52.254;4.490;2023-05-09T06:46:40;101219.88;;;14.76;100.00
31005;BME280;17676;52.254;4.490;2023-05-09T06:49:06;101214.75;;;14.87;100.00
31005;BME280;17676;52.254;4.490;2023-05-09T06:51:31;101211.13;;;14.74;100.00
31005;BME280;17676;52.254;4.490;2023-05-09T06:53:57;101222.47;;;14.90;99.26
31005;BME280;17676;52.254;4.490;2023-05-09T06:56:23;101208.97;;;14.76;98.95
31005;BME280;17676;52.254;4.490;2023-05-09T06:58:49;101200.81;;;14.76;97.42
31005;BME280;17676;52.254;4.490;2023-05-09T07:01:15;101214.13;;;14.84;96.26
31005;BME280;17676;52.254;4.490;2023-05-09T07:03:41;101200.97;;;14.82;95.46
31005;BME280;17676;52.254;4.490;2023-05-09T07:06:07;101196.28;;;14.70;95.81
31005;BME280;17676;52.254;4.490;2023-05-09T07:08:33;101198.69;;;14.78;93.98
31005;BME280;17676;52.254;4.490;2023-05-09T07:10:58;101195.28;;;14.65;93.91
31005;BME280;17676;52.254;4.490;2023-05-09T07:13:24;101180.00;;;14.64;92.08
31005;BME280;17676;52.254;4.490;2023-05-09T07:15:49;101183.25;;;14.72;90.79
31005;BME280;17676;52.254;4.490;2023-05-09T07:18:15;101181.06;;;14.63;91.07
31005;BME280;17676;52.254;4.490;2023-05-09T07:20:40;101190.19;;;14.68;90.34
31005;BME280;17676;52.254;4.490;2023-05-09T07:23:10;101185.81;;;14.67;89.27
31005;BME280;17676;52.254;4.490;2023-05-09T07:25:35;101178.88;;;14.53;87.56
31005;BME280;17676;52.254;4.490;2023-05-09T07:28:01;101175.66;;;14.56;86.58
31005;BME280;17676;52.254;4.490;2023-05-09T07:30:26;101152.06;;;14.50;86.80
31005;BME280;17676;52.254;4.490;2023-05-09T07:32:52;101148.75;;;14.66;86.63
31005;BME280;17676;52.254;4.490;2023-05-09T07:35:18;101150.41;;;14.67;85.97
31005;BME280;17676;52.254;4.490;2023-05-09T07:37:44;101149.97;;;14.70;85.19
31005;BME280;17676;52.254;4.490;2023-05-09T07:40:10;101145.88;;;14.61;85.46
31005;BME280;17676;52.254;4.490;2023-05-09T07:42:36;101148.75;;;14.66;85.69
31005;BME280;17676;52.254;4.490;2023-05-09T07:45:02;101134.22;;;14.54;86.60
31005;BME280;17676;52.254;4.490;2023-05-09T07:47:30;101132.03;;;14.63;87.09
31005;BME280;17676;52.254;4.490;2023-05-09T07:49:59;101137.53;;;14.56;88.35
31005;BME280;17676;52.254;4.490;2023-05-09T07:52:24;101121.50;;;14.66;87.44
31005;BME280;17676;52.254;4.490;2023-05-09T07:54:50;101123.25;;;14.61;89.52
31005;BME280;17676;52.254;4.490;2023-05-09T07:57:29;101108.28;;;14.52;90.99
31005;BME280;17676;52.254;4.490;2023-05-09T07:59:55;101100.31;;;14.50;90.89
31005;BME280;17676;52.254;4.490;2023-05-09T08:02:21;101094.19;;;14.55;90.93
31005;BME280;17676;52.254;4.490;2023-05-09T08:04:46;101095.47;;;14.34;93.86
31005;BME280;17676;52.254;4.490;2023-05-09T08:07:13;101098.75;;;14.43;92.71
31005;BME280;17676;52.254;4.490;2023-05-09T08:09:39;101100.16;;;14.63;90.17
31005;BME280;17676;52.254;4.490;2023-05-09T08:12:04;101091.09;;;14.51;92.24
31005;BME280;17676;52.254;4.490;2023-05-09T08:14:30;101084.25;;;14.60;90.88
31005;BME280;17676;52.254;4.490;2023-05-09T08:16:56;101086.38;;;14.40;93.78
31005;BME280;17676;52.254;4.490;2023-05-09T08:19:21;101073.84;;;14.39;92.23
31005;BME280;17676;52.254;4.490;2023-05-09T08:21:50;101079.44;;;14.44;91.45
31005;BME280;17676;52.254;4.490;2023-05-09T08:24:16;101079.81;;;14.48;90.59
31005;BME280;17676;52.254;4.490;2023-05-09T08:26:41;101069.47;;;14.38;91.43
31005;BME280;17676;52.254;4.490;2023-05-09T08:29:08;101069.91;;;14.35;89.36
31005;BME280;17676;52.254;4.490;2023-05-09T08:31:33;101062.28;;;14.44;86.93
31005;BME280;17676;52.254;4.490;2023-05-09T08:33:59;101070.94;;;14.52;85.46
31005;BME280;17676;52.254;4.490;2023-05-09T08:36:25;101072.00;;;14.51;84.32
31005;BME280;17676;52.254;4.490;2023-05-09T08:38:51;101054.78;;;14.57;82.25
31005;BME280;17676;52.254;4.490;2023-05-09T08:41:16;101057.41;;;14.64;79.63
31005;BME280;17676;52.254;4.490;2023-05-09T08:43:43;101062.00;;;14.82;77.62
31005;BME280;17676;52.254;4.490;2023-05-09T08:46:10;101053.63;;;14.95;87.11
31005;BME280;17676;52.254;4.490;2023-05-09T08:48:37;101049.28;;;14.75;88.24
31005;BME280;17676;52.254;4.490;2023-05-09T08:51:05;101056.44;;;14.88;86.58
31005;BME280;17676;52.254;4.490;2023-05-09T08:53:31;101045.91;;;14.92;85.89
31005;BME280;17676;52.254;4.490;2023-05-09T08:55:58;101053.81;;;14.82;86.32
31005;BME280;17676;52.254;4.490;2023-05-09T08:58:25;101034.25;;;14.84;85.81
31005;BME280;17676;52.254;4.490;2023-05-09T09:00:52;101044.56;;;14.82;85.99
31005;BME280;17676;52.254;4.490;2023-05-09T09:03:20;101035.34;;;14.83;84.76
31005;BME280;17676;52.254;4.490;2023-05-09T09:05:46;101041.44;;;14.97;83.13
31005;BME280;17676;52.254;4.490;2023-05-09T09:08:13;101034.44;;;15.01;82.25
31005;BME280;17676;52.254;4.490;2023-05-09T09:10:40;101029.22;;;15.00;82.16
31005;BME280;17676;52.254;4.490;2023-05-09T09:13:09;101034.22;;;15.03;81.48
31005;BME280;17676;52.254;4.490;2023-05-09T09:15:36;101032.19;;;14.98;81.30
31005;BME280;17676;52.254;4.490;2023-05-09T09:18:06;101023.88;;;14.93;81.82
31005;BME280;17676;52.254;4.490;2023-05-09T09:20:34;101023.03;;;14.93;81.81
31005;BME280;17676;52.254;4.490;2023-05-09T09:23:02;101025.91;;;14.98;80.79
31005;BME280;17676;52.254;4.490;2023-05-09T09:25:30;101017.75;;;14.98;80.94
31005;BME280;17676;52.254;4.490;2023-05-09T09:27:56;101012.28;;;14.98;80.97
31005;BME280;17676;52.254;4.490;2023-05-09T09:30:23;101031.09;;;14.88;82.37
31005;BME280;17676;52.254;4.490;2023-05-09T09:32:51;101017.00;;;14.91;81.47
31005;BME280;17676;52.254;4.490;2023-05-09T09:35:17;101007.88;;;14.97;80.31
31005;BME280;17676;52.254;4.490;2023-05-09T09:37:44;101019.66;;;15.09;79.31
31005;BME280;17676;52.254;4.490;2023-05-09T09:40:11;101010.59;;;14.97;79.20
31005;BME280;17676;52.254;4.490;2023-05-09T09:42:46;101006.31;;;14.89;79.13
31005;BME280;17676;52.254;4.490;2023-05-09T09:45:16;101012.88;;;15.00;77.47
31005;BME280;17676;52.254;4.490;2023-05-09T09:47:43;101003.78;;;15.06;75.85
31005;BME280;17676;52.254;4.490;2023-05-09T09:52:36;101009.94;;;15.13;74.63
31005;BME280;17676;52.254;4.490;2023-05-09T09:55:06;101000.56;;;15.09;74.00
31005;BME280;17676;52.254;4.490;2023-05-09T09:57:33;100999.13;;;14.95;74.39
31005;BME280;17676;52.254;4.490;2023-05-09T10:00:00;101003.81;;;14.88;74.25
31005;BME280;17676;52.254;4.490;2023-05-09T10:02:26;101011.22;;;14.99;73.37
31005;BME280;17676;52.254;4.490;2023-05-09T10:04:51;101002.59;;;15.02;72.27
31005;BME280;17676;52.254;4.490;2023-05-09T10:07:21;100998.44;;;15.11;71.36
31005;BME280;17676;52.254;4.490;2023-05-09T10:09:48;100993.44;;;15.08;70.81
31005;BME280;17676;52.254;4.490;2023-05-09T10:12:14;100999.38;;;15.05;70.34
31005;BME280;17676;52.254;4.490;2023-05-09T10:14:44;100993.00;;;15.11;68.70
31005;BME280;17676;52.254;4.490;2023-05-09T10:17:12;101002.94;;;15.17;68.08
31005;BME280;17676;52.254;4.490;2023-05-09T10:19:44;100997.50;;;15.17;67.73
31005;BME280;17676;52.254;4.490;2023-05-09T10:22:13;100988.16;;;15.24;67.21
31005;BME280;17676;52.254;4.490;2023-05-09T10:24:46;100995.63;;;15.29;66.90
31005;BME280;17676;52.254;4.490;2023-05-09T10:27:13;100992.88;;;15.17;67.19
31005;BME280;17676;52.254;4.490;2023-05-09T10:29:50;100987.19;;;15.30;66.53
31005;BME280;17676;52.254;4.490;2023-05-09T10:32:31;100983.28;;;15.15;66.80
31005;BME280;17676;52.254;4.490;2023-05-09T10:35:03;100973.00;;;15.28;66.04
31005;BME280;17676;52.254;4.490;2023-05-09T10:37:30;100974.16;;;15.21;65.97
31005;BME280;17676;52.254;4.490;2023-05-09T10:39:56;100972.59;;;15.25;65.55
31005;BME280;17676;52.254;4.490;2023-05-09T10:42:22;100963.25;;;15.21;65.62
31005;BME280;17676;52.254;4.490;2023-05-09T10:44:51;100968.84;;;15.26;65.11
31005;BME280;17676;52.254;4.490;2023-05-09T10:47:19;100956.97;;;15.32;64.63
31005;BME280;17676;52.254;4.490;2023-05-09T10:49:45;100954.38;;;15.37;64.18
31005;BME280;17676;52.254;4.490;2023-05-09T10:52:11;100963.97;;;15.28;64.47
31005;BME280;17676;52.254;4.490;2023-05-09T10:54:36;100957.13;;;15.37;64.01
31005;BME280;17676;52.254;4.490;2023-05-09T10:57:02;100956.19;;;15.43;63.70
31005;BME280;17676;52.254;4.490;2023-05-09T10:59:36;100952.03;;;15.52;63.43
31005;BME280;17676;52.254;4.490;2023-05-09T11:02:04;100942.56;;;15.43;63.39
31005;BME280;17676;52.254;4.490;2023-05-09T11:04:31;100947.88;;;15.49;63.20
31005;BME280;17676;52.254;4.490;2023-05-09T11:06:58;100936.13;;;15.49;62.95
31005;BME280;17676;52.254;4.490;2023-05-09T11:09:30;100943.47;;;15.60;62.58
31005;BME280;17676;52.254;4.490;2023-05-09T11:12:07;100931.28;;;15.51;62.49
31005;BME280;17676;52.254;4.490;2023-05-09T11:19:42;100928.50;;;15.74;61.62
31005;BME280;17676;52.254;4.490;2023-05-09T11:22:26;100927.97;;;15.60;62.03
31005;BME280;17676;52.254;4.490;2023-05-09T11:25:11;100918.22;;;15.64;61.81
31005;BME280;17676;52.254;4.490;2023-05-09T11:30:06;100915.81;;;15.79;61.62
31005;BME280;17676;52.254;4.490;2023-05-09T11:32:34;100912.81;;;15.92;61.30
31005;BME280;17676;52.254;4.490;2023-05-09T11:35:23;100912.78;;;16.04;61.13
31005;BME280;17676;52.254;4.490;2023-05-09T11:38:01;100914.75;;;15.69;62.02
31005;BME280;17676;52.254;4.490;2023-05-09T11:40:27;100915.72;;;15.63;62.14
31005;BME280;17676;52.254;4.490;2023-05-09T11:42:54;100906.47;;;15.64;62.08
31005;BME280;17676;52.254;4.490;2023-05-09T11:45:22;100907.03;;;15.66;62.17
31005;BME280;17676;52.254;4.490;2023-05-09T11:47:49;100896.16;;;15.54;62.43
31005;BME280;17676;52.254;4.490;2023-05-09T11:50:17;100894.34;;;15.83;61.74
31005;BME280;17676;52.254;4.490;2023-05-09T11:52:43;100885.22;;;15.77;61.75
31005;BME280;17676;52.254;4.490;2023-05-09T11:55:12;100888.66;;;15.73;61.85
31005;BME280;17676;52.254;4.490;2023-05-09T11:57:43;100885.34;;;15.71;61.80
31005;BME280;17676;52.254;4.490;2023-05-09T12:00:09;100882.25;;;15.79;61.66
31005;BME280;17676;52.254;4.490;2023-05-09T12:02:37;100882.34;;;15.84;61.54
31005;BME280;17676;52.254;4.490;2023-05-09T12:05:10;100880.31;;;15.91;61.49
31005;BME280;17676;52.254;4.490;2023-05-09T12:07:36;100883.59;;;15.93;61.34
31005;BME280;17676;52.254;4.490;2023-05-09T12:10:13;100879.00;;;15.82;61.69
31005;BME280;17676;52.254;4.490;2023-05-09T12:12:48;100872.06;;;15.63;62.16
31005;BME280;17676;52.254;4.490;2023-05-09T12:15:14;100874.25;;;15.38;62.88
31005;BME280;17676;52.254;4.490;2023-05-09T12:17:42;100874.19;;;15.61;62.38
31005;BME280;17676;52.254;4.490;2023-05-09T12:20:08;100878.13;;;15.53;62.65
31005;BME280;17676;52.254;4.490;2023-05-09T12:22:35;100880.13;;;15.58;62.55
31005;BME280;17676;52.254;4.490;2023-05-09T12:25:08;100871.38;;;15.56;62.50
31005;BME280;17676;52.254;4.490;2023-05-09T12:27:36;100872.06;;;15.63;62.44
31005;BME280;17676;52.254;4.490;2023-05-09T12:30:05;100866.34;;;15.76;62.12
31005;BME280;17676;52.254;4.490;2023-05-09T12:32:40;100870.81;;;15.82;62.10
31005;BME280;17676;52.254;4.490;2023-05-09T12:35:08;100873.59;;;15.70;62.39
31005;BME280;17676;52.254;4.490;2023-05-09T12:37:34;100873.72;;;15.64;62.71
31005;BME280;17676;52.254;4.490;2023-05-09T12:40:13;100862.56;;;15.54;62.88
31005;BME280;17676;52.254;4.490;2023-05-09T12:42:43;100858.19;;;15.53;62.81
31005;BME280;17676;52.254;4.490;2023-05-09T12:45:09;100863.75;;;15.58;62.60
31005;BME280;17676;52.254;4.490;2023-05-09T12:47:36;100860.66;;;15.66;62.46
31005;BME280;17676;52.254;4.490;2023-05-09T12:50:04;100855.38;;;15.48;62.85
31005;BME280;17676;52.254;4.490;2023-05-09T12:52:37;100856.50;;;15.63;62.45
31005;BME280;17676;52.254;4.490;2023-05-09T12:57:33;100847.94;;;15.71;62.10
31005;BME280;17676;52.254;4.490;2023-05-09T13:00:03;100844.50;;;15.76;61.95